Bacolod, Philippines
Current Conditions -  °F | °C
As of 8:00 PM on Wednesday 28 Jan 2015 (Local Time) from RPVM Reporting Station
Overcast Overcast  
Wind Chill: 81°   Ceiling: 9000
Heat Index: 87°   Visibility: 6mi
Dew Point: 77°   Wind: 15mph
Humidity: 89%   Direction: 20°NNE
Pressure: 29.88"   Gusts: NA
Location:  10.63°N, 122.97°E
Report Text: RPVM 281200Z 02013KT 9999 FEW020 OVC090 27/25 Q1012 RMK A2988
Loading
Personal Weather Stations






























Interactive Weather Map New forecast layout! Learn more

10-Day Weather Forecast

Advertisements
Track Severe Weather on mobile